Princeton, Kentucky
Current Conditions -  °F | °C
As of 2:55 PM on Friday 19 Dec 2014 (Local Time) from K5M9 Reporting Station
Overcast Overcast  
Wind Chill: 33°   Ceiling: 4000
Heat Index: 38°   Visibility: 10mi
Dew Point: 26°   Wind: 6mph
Humidity: 63%   Direction: 30°NNE
Pressure: 30.25"   Gusts: NA
Location:  37.11°N, 87.88°W
Report Text: K5M9 192055Z AUTO 03005KT 10SM OVC040 03/M03 A3025 RMK AO2 T00311033
Loading
Personal Weather Stations






























Interactive Weather Map New forecast layout! Learn more

10-Day Weather Forecast

Advertisements
Track Severe Weather on mobile